createdAt,value
2023-09-14T00:00:44.000Z,2
2023-09-14T00:02:00.000Z,2.3
2023-09-14T00:03:16.000Z,2
2023-09-14T00:04:33.000Z,2
2023-09-14T00:05:49.000Z,2
2023-09-14T00:07:05.000Z,2.1
2023-09-14T00:08:20.000Z,1.8
2023-09-14T00:09:35.000Z,2
2023-09-14T00:10:51.000Z,2
2023-09-14T00:12:07.000Z,2.2
2023-09-14T00:13:24.000Z,1.9
2023-09-14T00:14:40.000Z,1.8
2023-09-14T00:15:56.000Z,2.3
2023-09-14T00:17:12.000Z,1.9
2023-09-14T00:18:28.000Z,2.4
2023-09-14T00:19:44.000Z,1.7
2023-09-14T00:21:00.000Z,1.9
2023-09-14T00:22:17.000Z,2
2023-09-14T00:24:49.000Z,2
2023-09-14T00:28:36.000Z,2
2023-09-14T00:29:52.000Z,1.9
2023-09-14T00:32:23.000Z,2.2
2023-09-14T00:34:55.000Z,2
2023-09-14T00:36:11.000Z,1.9
2023-09-14T00:37:27.000Z,2.3
2023-09-14T00:38:44.000Z,1.7
2023-09-14T00:40:00.000Z,1.6
2023-09-14T00:41:16.000Z,2.2
2023-09-14T00:42:32.000Z,1.8
2023-09-14T00:43:48.000Z,2.2
2023-09-14T00:45:03.000Z,2.3
2023-09-14T00:46:18.000Z,2.1
2023-09-14T00:47:35.000Z,2.2
2023-09-14T00:48:51.000Z,2.3
2023-09-14T00:50:07.000Z,2.4
2023-09-14T00:51:23.000Z,2.3
2023-09-14T00:52:39.000Z,1.9
2023-09-14T00:53:55.000Z,1.7
2023-09-14T00:55:11.000Z,2
2023-09-14T00:56:28.000Z,2
2023-09-14T00:57:43.000Z,2.2
2023-09-14T00:58:58.000Z,2.2
2023-09-14T01:00:13.000Z,1.9
2023-09-14T01:01:29.000Z,1.9
2023-09-14T01:02:45.000Z,2.2
2023-09-14T01:04:02.000Z,1.9
2023-09-14T01:05:18.000Z,2.2
2023-09-14T01:06:34.000Z,2.4
2023-09-14T01:07:50.000Z,2.6
2023-09-14T01:09:06.000Z,1.8
2023-09-14T01:10:22.000Z,2.1
2023-09-14T01:11:37.000Z,2.2
2023-09-14T01:12:53.000Z,1.9
2023-09-14T01:14:09.000Z,2
2023-09-14T01:15:25.000Z,1.9
2023-09-14T01:16:41.000Z,2.2
2023-09-14T01:17:57.000Z,2.1
2023-09-14T01:19:13.000Z,2.5
2023-09-14T01:20:30.000Z,1.8
2023-09-14T01:21:46.000Z,1.6
2023-09-14T01:23:02.000Z,2.3
2023-09-14T01:24:18.000Z,1.9
2023-09-14T01:26:50.000Z,2.4
2023-09-14T01:29:23.000Z,1.9
2023-09-14T01:30:38.000Z,2.1
2023-09-14T01:31:53.000Z,1.9
2023-09-14T01:33:09.000Z,2
2023-09-14T01:34:25.000Z,1.9
2023-09-14T01:35:41.000Z,2.2
2023-09-14T01:36:57.000Z,1.7
2023-09-14T01:38:14.000Z,1.6
2023-09-14T01:39:30.000Z,1.7
2023-09-14T01:40:46.000Z,2
2023-09-14T01:42:02.000Z,2.1
2023-09-14T01:43:17.000Z,2
2023-09-14T01:44:32.000Z,1.6
2023-09-14T01:45:48.000Z,2.2
2023-09-14T01:47:04.000Z,2
2023-09-14T01:48:20.000Z,1.8
2023-09-14T01:49:36.000Z,1.9
2023-09-14T01:50:52.000Z,2
2023-09-14T01:52:08.000Z,1.6
2023-09-14T01:53:24.000Z,1.9
2023-09-14T01:54:41.000Z,2
2023-09-14T01:55:57.000Z,2.4
2023-09-14T01:57:13.000Z,2.3
2023-09-14T01:58:29.000Z,1.8
2023-09-14T01:59:45.000Z,2.4
2023-09-14T02:01:01.000Z,1.8
2023-09-14T02:02:16.000Z,2.2
2023-09-14T02:03:33.000Z,2.2
2023-09-14T02:04:49.000Z,1.8
2023-09-14T02:06:05.000Z,1.8
2023-09-14T02:07:21.000Z,2.1
2023-09-14T02:08:37.000Z,2
2023-09-14T02:09:53.000Z,1.7
2023-09-14T02:11:09.000Z,1.7
2023-09-14T02:12:24.000Z,1.9
2023-09-14T02:13:40.000Z,2
2023-09-14T02:14:56.000Z,1.8
2023-09-14T02:16:12.000Z,1.6
2023-09-14T02:18:45.000Z,1.8
2023-09-14T02:20:01.000Z,1.9
2023-09-14T02:21:17.000Z,1.9
2023-09-14T02:25:05.000Z,2.5
2023-09-14T02:26:21.000Z,1.9
2023-09-14T02:28:53.000Z,1.7
2023-09-14T02:31:24.000Z,1.7
2023-09-14T02:33:55.000Z,1.9
2023-09-14T02:35:11.000Z,1.6
2023-09-14T02:36:26.000Z,1.7
2023-09-14T02:38:58.000Z,1.7
2023-09-14T02:40:14.000Z,1.4
2023-09-14T02:41:30.000Z,1.6
2023-09-14T02:42:46.000Z,2
2023-09-14T02:44:03.000Z,1.7
2023-09-14T02:45:19.000Z,2.2
2023-09-14T02:46:35.000Z,1.4
2023-09-14T02:47:51.000Z,1.7
2023-09-14T02:49:07.000Z,1.9
2023-09-14T02:50:23.000Z,1.5
2023-09-14T02:51:39.000Z,1.5
2023-09-14T02:52:55.000Z,2
2023-09-14T02:54:11.000Z,1.5
2023-09-14T02:55:27.000Z,1.5
2023-09-14T02:56:43.000Z,2.1
2023-09-14T02:57:59.000Z,1.7
2023-09-14T02:59:15.000Z,1.6
2023-09-14T03:00:31.000Z,1.6
2023-09-14T03:01:47.000Z,1.9
2023-09-14T03:03:02.000Z,2.2
2023-09-14T03:04:18.000Z,1.6
2023-09-14T03:05:34.000Z,1.7
2023-09-14T03:06:50.000Z,1.2
2023-09-14T03:08:06.000Z,1.6
2023-09-14T03:09:23.000Z,1.4
2023-09-14T03:10:39.000Z,1.7
2023-09-14T03:13:11.000Z,1.7
2023-09-14T03:14:27.000Z,1.8
2023-09-14T03:15:43.000Z,1.4
2023-09-14T03:16:59.000Z,1.5
2023-09-14T03:18:16.000Z,1.6
2023-09-14T03:19:31.000Z,2.1
2023-09-14T03:20:47.000Z,1.4
2023-09-14T03:24:35.000Z,1.7
2023-09-14T03:25:50.000Z,1.4
2023-09-14T03:27:06.000Z,1.7
2023-09-14T03:28:22.000Z,1.3
2023-09-14T03:29:38.000Z,1.7
2023-09-14T03:30:54.000Z,1.9
2023-09-14T03:32:10.000Z,1.6
2023-09-14T03:33:26.000Z,1.2
2023-09-14T03:34:42.000Z,1.7
2023-09-14T03:35:59.000Z,1.6
2023-09-14T03:37:15.000Z,1.9
2023-09-14T03:38:30.000Z,1.7
2023-09-14T03:39:45.000Z,2
2023-09-14T03:41:01.000Z,1.8
2023-09-14T03:42:17.000Z,2.1
2023-09-14T03:43:34.000Z,1.8
2023-09-14T03:44:50.000Z,1.8
2023-09-14T03:46:05.000Z,1.8
2023-09-14T03:47:21.000Z,1.5
2023-09-14T03:48:37.000Z,1.6
2023-09-14T03:49:53.000Z,1.7
2023-09-14T03:51:08.000Z,1.6
2023-09-14T03:52:24.000Z,2.2
2023-09-14T03:53:40.000Z,2.3
2023-09-14T03:54:56.000Z,1.8
2023-09-14T03:56:12.000Z,2.2
2023-09-14T03:57:28.000Z,2.5
2023-09-14T03:58:44.000Z,1.7
2023-09-14T04:00:01.000Z,1.9
2023-09-14T04:01:17.000Z,1.5
2023-09-14T04:02:33.000Z,2
2023-09-14T04:03:49.000Z,2
2023-09-14T04:05:05.000Z,2.2
2023-09-14T04:10:10.000Z,2
2023-09-14T04:11:25.000Z,1.8
2023-09-14T04:15:12.000Z,2.3
2023-09-14T04:16:28.000Z,1.8
2023-09-14T04:17:45.000Z,1.9
2023-09-14T04:19:01.000Z,1.4
2023-09-14T04:20:17.000Z,1.5
2023-09-14T04:24:05.000Z,1.8
2023-09-14T04:25:21.000Z,2
2023-09-14T04:26:38.000Z,1.4
2023-09-14T04:29:10.000Z,1.7
2023-09-14T04:30:25.000Z,1.8
2023-09-14T04:31:40.000Z,1.9
2023-09-14T04:32:56.000Z,2.3
2023-09-14T04:34:13.000Z,1.9
2023-09-14T04:35:29.000Z,1.7
2023-09-14T04:36:45.000Z,1.6
2023-09-14T04:38:01.000Z,2.1
2023-09-14T04:39:17.000Z,1.5
2023-09-14T04:40:33.000Z,2
2023-09-14T04:41:49.000Z,1.8
2023-09-14T04:43:05.000Z,1.6
2023-09-14T04:44:20.000Z,1.8
2023-09-14T04:45:36.000Z,1.7
2023-09-14T04:46:52.000Z,2.2
2023-09-14T04:48:08.000Z,1.9
2023-09-14T04:49:24.000Z,2.3
2023-09-14T04:50:40.000Z,2.4
2023-09-14T04:51:56.000Z,2.2
2023-09-14T04:53:11.000Z,2.1
2023-09-14T04:54:27.000Z,2.3
2023-09-14T04:55:43.000Z,2.2
2023-09-14T04:56:59.000Z,2.2
2023-09-14T04:58:15.000Z,1.9
2023-09-14T04:59:32.000Z,2.4
2023-09-14T05:00:48.000Z,2.4
2023-09-14T05:02:04.000Z,1.9
2023-09-14T05:04:36.000Z,2.3
2023-09-14T05:05:52.000Z,2.3
2023-09-14T05:07:08.000Z,2.4
2023-09-14T05:08:25.000Z,2
2023-09-14T05:09:41.000Z,2.5
2023-09-14T05:10:56.000Z,2.6
2023-09-14T05:12:12.000Z,2.4
2023-09-14T05:13:28.000Z,1.8
2023-09-14T05:16:00.000Z,2
2023-09-14T05:17:16.000Z,3
2023-09-14T05:18:31.000Z,2.5
2023-09-14T05:19:47.000Z,2.2
2023-09-14T05:21:03.000Z,2
2023-09-14T05:22:19.000Z,2.1
2023-09-14T05:24:52.000Z,2.1
2023-09-14T05:26:08.000Z,2.3
2023-09-14T05:27:24.000Z,2.1
2023-09-14T05:28:40.000Z,2.5
2023-09-14T05:29:56.000Z,2.4
2023-09-14T05:31:12.000Z,2.2
2023-09-14T05:32:28.000Z,2.3
2023-09-14T05:33:45.000Z,2.4
2023-09-14T05:35:00.000Z,2.3
2023-09-14T05:36:16.000Z,2
2023-09-14T05:37:32.000Z,2.8
2023-09-14T05:38:48.000Z,2.4
2023-09-14T05:40:04.000Z,2.5
2023-09-14T05:41:20.000Z,2.3
2023-09-14T05:42:37.000Z,2.4
2023-09-14T05:43:52.000Z,2.2
2023-09-14T05:45:07.000Z,2.1
2023-09-14T05:46:23.000Z,2.6
2023-09-14T05:47:39.000Z,3
2023-09-14T05:48:55.000Z,2.2
2023-09-14T05:50:12.000Z,2.5
2023-09-14T05:51:28.000Z,2.8
2023-09-14T05:52:44.000Z,2.1
2023-09-14T05:54:00.000Z,2.6
2023-09-14T05:55:16.000Z,2.5
2023-09-14T05:56:32.000Z,2.5
2023-09-14T05:57:48.000Z,2.6
2023-09-14T05:59:04.000Z,2.9
2023-09-14T06:00:20.000Z,2.9
2023-09-14T06:01:36.000Z,2.8
2023-09-14T06:02:52.000Z,2.4
2023-09-14T06:04:08.000Z,3.6
2023-09-14T06:05:24.000Z,2.6
2023-09-14T06:06:41.000Z,2.8
2023-09-14T06:07:57.000Z,2.6
2023-09-14T06:10:29.000Z,2.6
2023-09-14T06:11:45.000Z,2.8
2023-09-14T06:13:01.000Z,2.2
2023-09-14T06:14:16.000Z,2.9
2023-09-14T06:16:49.000Z,2.7
2023-09-14T06:18:04.000Z,2.9
2023-09-14T06:19:19.000Z,2.5
2023-09-14T06:20:34.000Z,2.4
2023-09-14T06:21:50.000Z,3.3
2023-09-14T06:23:07.000Z,2.7
2023-09-14T06:24:23.000Z,3
2023-09-14T06:25:39.000Z,2.6
2023-09-14T06:26:55.000Z,2.8
2023-09-14T06:28:11.000Z,2.8
2023-09-14T06:29:27.000Z,3.1
2023-09-14T06:30:43.000Z,2.8
2023-09-14T06:31:59.000Z,3.7
2023-09-14T06:33:14.000Z,3.3
2023-09-14T06:34:30.000Z,3.2
2023-09-14T06:35:46.000Z,2.8
2023-09-14T06:37:02.000Z,2.6
2023-09-14T06:38:18.000Z,2.8
2023-09-14T06:39:35.000Z,3.1
2023-09-14T06:40:51.000Z,2.8
2023-09-14T06:42:07.000Z,2.9
2023-09-14T06:43:23.000Z,2.8
2023-09-14T06:44:39.000Z,2.4
2023-09-14T06:45:55.000Z,2.6
2023-09-14T06:47:11.000Z,3.1
2023-09-14T06:48:28.000Z,3
2023-09-14T06:49:43.000Z,2.5
2023-09-14T06:50:59.000Z,3.1
2023-09-14T06:52:15.000Z,2.5
2023-09-14T06:53:31.000Z,2.3
2023-09-14T06:54:47.000Z,3.2
2023-09-14T06:56:03.000Z,2.3
2023-09-14T06:57:19.000Z,2.8
2023-09-14T06:58:34.000Z,2.7
2023-09-14T06:59:50.000Z,2.4
2023-09-14T07:01:06.000Z,2.3
2023-09-14T07:02:22.000Z,1.9
2023-09-14T07:03:38.000Z,2.6
2023-09-14T07:04:55.000Z,2.7
2023-09-14T07:06:11.000Z,2.6
2023-09-14T07:08:43.000Z,2.2
2023-09-14T07:09:59.000Z,2.2
2023-09-14T07:12:31.000Z,2.2
2023-09-14T07:13:47.000Z,2.2
2023-09-14T07:16:18.000Z,2
2023-09-14T07:18:49.000Z,2.7
2023-09-14T07:20:05.000Z,2.3
2023-09-14T07:21:22.000Z,1.7
2023-09-14T07:22:38.000Z,2.1
2023-09-14T07:23:54.000Z,1.7
2023-09-14T07:25:10.000Z,2.1
2023-09-14T07:26:26.000Z,1.7
2023-09-14T07:27:42.000Z,2.2
2023-09-14T07:28:57.000Z,1.9
2023-09-14T07:30:13.000Z,1.7
2023-09-14T07:31:29.000Z,1.7
2023-09-14T07:32:45.000Z,1.7
2023-09-14T07:34:01.000Z,1.6
2023-09-14T07:35:17.000Z,1.9
2023-09-14T07:36:33.000Z,2
2023-09-14T07:37:49.000Z,1.8
2023-09-14T07:39:06.000Z,1.5
2023-09-14T07:40:22.000Z,1.8
2023-09-14T07:41:37.000Z,1.9
2023-09-14T07:42:52.000Z,2
2023-09-14T07:44:08.000Z,1.9
2023-09-14T07:45:24.000Z,1.8
2023-09-14T07:46:41.000Z,1.9
2023-09-14T07:47:57.000Z,1.9
2023-09-14T07:49:13.000Z,1.7
2023-09-14T07:50:29.000Z,1.5
2023-09-14T07:51:45.000Z,1.5
2023-09-14T07:53:01.000Z,2.3
2023-09-14T07:54:16.000Z,1.9
2023-09-14T07:55:33.000Z,1.6
2023-09-14T07:56:48.000Z,2.2
2023-09-14T07:58:04.000Z,2
2023-09-14T07:59:20.000Z,2
2023-09-14T08:00:35.000Z,1.8
2023-09-14T08:01:51.000Z,1.4
2023-09-14T08:03:07.000Z,1.8
2023-09-14T08:04:24.000Z,2.1
2023-09-14T08:05:40.000Z,1.8
2023-09-14T08:06:56.000Z,1.7
2023-09-14T08:08:12.000Z,1.7
2023-09-14T08:12:01.000Z,1.6
2023-09-14T08:14:32.000Z,1.6
2023-09-14T08:18:19.000Z,2.1
2023-09-14T08:20:51.000Z,1.6
2023-09-14T08:22:06.000Z,1.5
2023-09-14T08:23:21.000Z,1.1
2023-09-14T08:24:37.000Z,1.1
2023-09-14T08:25:53.000Z,1.8
2023-09-14T08:27:09.000Z,1.1
2023-09-14T08:28:26.000Z,1.4
2023-09-14T08:29:42.000Z,1.7
2023-09-14T08:30:58.000Z,1.4
2023-09-14T08:32:14.000Z,1.8
2023-09-14T08:33:30.000Z,1.9
2023-09-14T08:34:45.000Z,1.3
2023-09-14T08:36:00.000Z,1.3
2023-09-14T08:37:17.000Z,1.5
2023-09-14T08:38:33.000Z,1.2
2023-09-14T08:39:49.000Z,1.7
2023-09-14T08:41:05.000Z,1.3
2023-09-14T08:42:21.000Z,1.8
2023-09-14T08:43:37.000Z,1.3
2023-09-14T08:44:53.000Z,1.3
2023-09-14T08:46:10.000Z,1.4
2023-09-14T08:47:26.000Z,1.2
2023-09-14T08:48:42.000Z,1.6
2023-09-14T08:49:58.000Z,1.4
2023-09-14T08:51:14.000Z,1.8
2023-09-14T08:52:30.000Z,1.4
2023-09-14T08:53:47.000Z,1.8
2023-09-14T08:55:03.000Z,1.4
2023-09-14T08:56:19.000Z,1.7
2023-09-14T08:57:35.000Z,2.3
2023-09-14T09:00:07.000Z,1.6
2023-09-14T09:01:23.000Z,1.6
2023-09-14T09:02:38.000Z,1.2
2023-09-14T09:05:10.000Z,1.7
2023-09-14T09:06:26.000Z,1.3
2023-09-14T09:07:42.000Z,1.5
2023-09-14T09:08:58.000Z,1.4
2023-09-14T09:10:15.000Z,1.5
2023-09-14T09:11:31.000Z,1.3
2023-09-14T09:12:47.000Z,1.6
2023-09-14T09:14:03.000Z,1.4
2023-09-14T09:16:35.000Z,1.5
2023-09-14T09:17:50.000Z,1.6
2023-09-14T09:19:06.000Z,1.3
2023-09-14T09:20:22.000Z,1.5
2023-09-14T09:21:38.000Z,1.7
2023-09-14T09:22:54.000Z,1.4
2023-09-14T09:24:10.000Z,1.4
2023-09-14T09:25:26.000Z,1.6
2023-09-14T09:26:43.000Z,1.3
2023-09-14T09:27:59.000Z,1.4
2023-09-14T09:29:15.000Z,1.4
2023-09-14T09:30:30.000Z,1.9
2023-09-14T09:31:45.000Z,1.3
2023-09-14T09:33:01.000Z,1.4
2023-09-14T09:34:17.000Z,2
2023-09-14T09:35:34.000Z,1.4
2023-09-14T09:36:50.000Z,1.2
2023-09-14T09:38:06.000Z,1.7
2023-09-14T09:39:22.000Z,1.5
2023-09-14T09:40:38.000Z,1.4
2023-09-14T09:41:54.000Z,1.7
2023-09-14T09:43:10.000Z,1.3
2023-09-14T09:44:27.000Z,1.3
2023-09-14T09:45:43.000Z,1.1
2023-09-14T09:46:59.000Z,1.3
2023-09-14T09:48:15.000Z,2.1
2023-09-14T09:49:31.000Z,1.5
2023-09-14T09:50:47.000Z,1.3
2023-09-14T09:54:36.000Z,1.7
2023-09-14T09:55:52.000Z,1.5
2023-09-14T09:57:08.000Z,1.6
2023-09-14T09:58:23.000Z,1.4
2023-09-14T09:59:39.000Z,1.5
2023-09-14T10:02:10.000Z,1.3
2023-09-14T10:04:42.000Z,1.7
2023-09-14T10:07:14.000Z,1.4
2023-09-14T10:08:31.000Z,1.4
2023-09-14T10:09:47.000Z,1.5
2023-09-14T10:11:03.000Z,1.2
2023-09-14T10:12:19.000Z,1.8
2023-09-14T10:13:35.000Z,1.8
2023-09-14T10:14:51.000Z,1.5
2023-09-14T10:16:07.000Z,1.5
2023-09-14T10:17:22.000Z,1.3
2023-09-14T10:18:38.000Z,1
2023-09-14T10:19:54.000Z,1.5
2023-09-14T10:21:10.000Z,1.1
2023-09-14T10:22:26.000Z,1.3
2023-09-14T10:23:42.000Z,1.5
2023-09-14T10:24:59.000Z,1.5
2023-09-14T10:26:15.000Z,1.5
2023-09-14T10:27:31.000Z,1.2
2023-09-14T10:28:46.000Z,1.3
2023-09-14T10:30:01.000Z,1.2
2023-09-14T10:31:17.000Z,1.2
2023-09-14T10:32:33.000Z,1.7
2023-09-14T10:33:50.000Z,1.3
2023-09-14T10:35:06.000Z,1.6
2023-09-14T10:36:22.000Z,1.3
2023-09-14T10:37:38.000Z,1.3
2023-09-14T10:38:54.000Z,1.9
2023-09-14T10:40:10.000Z,1.5
2023-09-14T10:41:26.000Z,1.4
2023-09-14T10:42:43.000Z,1.4
2023-09-14T10:43:59.000Z,1.6
2023-09-14T10:45:15.000Z,1.4
2023-09-14T10:46:30.000Z,1.4
2023-09-14T10:47:46.000Z,1.3
2023-09-14T10:49:02.000Z,1.3
2023-09-14T10:52:51.000Z,1.4
2023-09-14T10:54:06.000Z,1.2
2023-09-14T10:55:21.000Z,1.6
2023-09-14T10:59:10.000Z,1.7
2023-09-14T11:04:14.000Z,1.2
2023-09-14T11:05:30.000Z,1.5
2023-09-14T11:06:46.000Z,1.1
2023-09-14T11:08:03.000Z,1.2
2023-09-14T11:09:19.000Z,1.7
2023-09-14T11:10:35.000Z,1.4
2023-09-14T11:11:50.000Z,1.3
2023-09-14T11:13:05.000Z,2.1
2023-09-14T11:14:20.000Z,1.2
2023-09-14T11:15:36.000Z,1.4
2023-09-14T11:16:52.000Z,1.3
2023-09-14T11:18:08.000Z,1.6
2023-09-14T11:19:24.000Z,1.2
2023-09-14T11:20:40.000Z,1.5
2023-09-14T11:21:56.000Z,1.2
2023-09-14T11:23:12.000Z,1.1
2023-09-14T11:24:29.000Z,1.5
2023-09-14T11:25:45.000Z,1.4
2023-09-14T11:27:00.000Z,1.2
2023-09-14T11:28:15.000Z,1.4
2023-09-14T11:29:31.000Z,0.9
2023-09-14T11:30:47.000Z,1.2
2023-09-14T11:32:04.000Z,1.2
2023-09-14T11:33:20.000Z,1.5
2023-09-14T11:34:36.000Z,1.4
2023-09-14T11:35:52.000Z,1.2
2023-09-14T11:37:08.000Z,1.6
2023-09-14T11:38:24.000Z,1.1
2023-09-14T11:39:39.000Z,1.6
2023-09-14T11:40:55.000Z,1.1
2023-09-14T11:42:11.000Z,1.4
2023-09-14T11:43:27.000Z,1.1
2023-09-14T11:44:43.000Z,1
2023-09-14T11:45:59.000Z,1.4
2023-09-14T11:47:15.000Z,1.3
2023-09-14T11:48:31.000Z,1.5
2023-09-14T11:49:48.000Z,1.2
2023-09-14T11:51:04.000Z,1.1
2023-09-14T11:54:52.000Z,1.6
2023-09-14T11:56:07.000Z,1.3
2023-09-14T11:59:55.000Z,1.1
2023-09-14T12:01:11.000Z,1
2023-09-14T12:02:27.000Z,1.2
2023-09-14T12:04:59.000Z,1.3
2023-09-14T12:06:16.000Z,1.1
2023-09-14T12:07:32.000Z,1.4
2023-09-14T12:08:48.000Z,1.1
2023-09-14T12:10:04.000Z,1.2
2023-09-14T12:12:36.000Z,1.2
2023-09-14T12:13:52.000Z,1
2023-09-14T12:15:07.000Z,1
2023-09-14T12:16:23.000Z,1.3
2023-09-14T12:17:39.000Z,1.2
2023-09-14T12:18:55.000Z,1.1
2023-09-14T12:20:11.000Z,1.2
2023-09-14T12:21:27.000Z,1.2
2023-09-14T12:22:44.000Z,1.5
2023-09-14T12:24:00.000Z,0.9
2023-09-14T12:25:16.000Z,1.4
2023-09-14T12:26:31.000Z,1.3
2023-09-14T12:27:46.000Z,1.1
2023-09-14T12:29:02.000Z,1.7
2023-09-14T12:30:18.000Z,1.3
2023-09-14T12:31:35.000Z,1.3
2023-09-14T12:32:51.000Z,1.3
2023-09-14T12:34:07.000Z,1.3
2023-09-14T12:35:23.000Z,1.3
2023-09-14T12:36:39.000Z,1.3
2023-09-14T12:37:55.000Z,1.3
2023-09-14T12:39:11.000Z,1.3
2023-09-14T12:40:26.000Z,1.6
2023-09-14T12:41:42.000Z,1.3
2023-09-14T12:42:58.000Z,1.2
2023-09-14T12:44:14.000Z,1.2
2023-09-14T12:45:30.000Z,1.4
2023-09-14T12:46:46.000Z,1.3
2023-09-14T12:48:03.000Z,1.8
2023-09-14T12:50:35.000Z,1.5
2023-09-14T12:53:07.000Z,1.4
2023-09-14T12:54:22.000Z,1.6
2023-09-14T12:55:37.000Z,1.4
2023-09-14T12:58:10.000Z,1.6
2023-09-14T12:59:26.000Z,1.4
2023-09-14T13:00:42.000Z,1.5
2023-09-14T13:01:58.000Z,1.9
2023-09-14T13:04:31.000Z,1.2
2023-09-14T13:07:03.000Z,1.9
2023-09-14T13:08:19.000Z,1.4
2023-09-14T13:09:35.000Z,1.3
2023-09-14T13:10:50.000Z,1.2
2023-09-14T13:12:05.000Z,1.8
2023-09-14T13:13:22.000Z,1.2
2023-09-14T13:14:38.000Z,1.6
2023-09-14T13:15:54.000Z,1.4
2023-09-14T13:17:10.000Z,1.6
2023-09-14T13:18:26.000Z,1.6
2023-09-14T13:20:58.000Z,1.8
2023-09-14T13:22:15.000Z,1.5
2023-09-14T13:23:31.000Z,1.3
2023-09-14T13:24:47.000Z,1.3
2023-09-14T13:26:03.000Z,1.9
2023-09-14T13:28:35.000Z,1.6
2023-09-14T13:29:51.000Z,1.3
2023-09-14T13:31:07.000Z,1.4
2023-09-14T13:32:23.000Z,1.6
2023-09-14T13:33:39.000Z,1.6
2023-09-14T13:34:55.000Z,1.4
2023-09-14T13:36:11.000Z,1.4
2023-09-14T13:37:27.000Z,1.9
2023-09-14T13:38:43.000Z,1.6
2023-09-14T13:39:58.000Z,1.6
2023-09-14T13:41:14.000Z,1.6
2023-09-14T13:42:30.000Z,1.5
2023-09-14T13:43:46.671Z,1.7
2023-09-14T13:45:02.000Z,1.3
2023-09-14T13:46:18.000Z,1.4
2023-09-14T13:47:35.000Z,1.7
2023-09-14T13:48:51.000Z,1.4
2023-09-14T13:50:07.000Z,2.2
2023-09-14T13:51:22.000Z,1.4
2023-09-14T13:52:37.000Z,1.4
2023-09-14T13:53:53.000Z,1.4
2023-09-14T13:55:10.000Z,1.5
2023-09-14T13:57:42.000Z,1.7
2023-09-14T13:58:58.000Z,1.5
2023-09-14T14:00:14.000Z,1.4
2023-09-14T14:01:30.000Z,1.5
2023-09-14T14:02:46.000Z,1.3
2023-09-14T14:04:03.000Z,1.1
2023-09-14T14:05:19.000Z,1.3
2023-09-14T14:06:35.000Z,1.6
2023-09-14T14:07:51.000Z,1.4
2023-09-14T14:09:06.000Z,1.4
2023-09-14T14:10:22.000Z,1.8
2023-09-14T14:11:38.000Z,1.5
2023-09-14T14:14:11.000Z,1.9
2023-09-14T14:15:26.000Z,1.5
2023-09-14T14:19:13.000Z,1.6
2023-09-14T14:21:46.000Z,1.4
2023-09-14T14:23:02.000Z,1.5
2023-09-14T14:24:18.000Z,1.5
2023-09-14T14:25:34.000Z,1.3
2023-09-14T14:26:50.000Z,1.7
2023-09-14T14:28:06.000Z,1.5
2023-09-14T14:29:23.000Z,1.5
2023-09-14T14:30:39.000Z,1.3
2023-09-14T14:31:55.000Z,1.9
2023-09-14T14:33:10.000Z,1.6
2023-09-14T14:34:26.000Z,1.4
2023-09-14T14:35:42.000Z,1.5
2023-09-14T14:36:58.000Z,1.5
2023-09-14T14:38:15.000Z,1.7
2023-09-14T14:39:31.000Z,1.3
2023-09-14T14:40:47.000Z,1.9
2023-09-14T14:42:03.000Z,1.7
2023-09-14T14:43:19.000Z,1.6
2023-09-14T14:44:34.000Z,1.2
2023-09-14T14:45:49.000Z,1.4
2023-09-14T14:48:22.000Z,1.7
2023-09-14T14:49:38.000Z,1.9
2023-09-14T14:50:54.000Z,1.4
2023-09-14T14:52:10.000Z,1.2
2023-09-14T14:54:42.000Z,1.5
2023-09-14T14:57:15.000Z,1.8
2023-09-14T14:58:31.000Z,1.5
2023-09-14T14:59:47.000Z,1.3
2023-09-14T15:01:03.000Z,1.9
2023-09-14T15:02:18.000Z,1.7
2023-09-14T15:03:35.000Z,1.4
2023-09-14T15:04:51.000Z,1.6
2023-09-14T15:06:07.000Z,1.4
2023-09-14T15:09:55.000Z,1.5
2023-09-14T15:11:11.000Z,1.5
2023-09-14T15:12:28.000Z,1.5
2023-09-14T15:13:44.000Z,1.5
2023-09-14T15:15:00.000Z,1.6
2023-09-14T15:16:15.000Z,1.4
2023-09-14T15:17:30.000Z,1.6
2023-09-14T15:18:46.000Z,1.4
2023-09-14T15:20:02.000Z,1.5
2023-09-14T15:21:19.000Z,1.5
2023-09-14T15:22:35.000Z,1.5
2023-09-14T15:23:51.000Z,1.5
2023-09-14T15:25:07.000Z,1.6
2023-09-14T15:26:23.000Z,1.7
2023-09-14T15:27:39.000Z,1.3
2023-09-14T15:28:56.000Z,1.7
2023-09-14T15:30:11.000Z,1.6
2023-09-14T15:31:27.000Z,1.9
2023-09-14T15:32:43.000Z,1.8
2023-09-14T15:33:59.000Z,1.6
2023-09-14T15:35:15.000Z,1.2
2023-09-14T15:36:31.000Z,1.5
2023-09-14T15:37:48.000Z,1.3
2023-09-14T15:39:04.000Z,1.6
2023-09-14T15:40:20.000Z,1.1
2023-09-14T15:41:35.000Z,1.2
2023-09-14T15:42:50.000Z,1
2023-09-14T15:44:06.000Z,1.1
2023-09-14T15:45:23.000Z,1.3
2023-09-14T15:46:39.000Z,1.4
2023-09-14T15:49:11.000Z,1.4
2023-09-14T15:51:43.000Z,1.4
2023-09-14T15:52:59.000Z,1.4
2023-09-14T15:54:16.000Z,1.3
2023-09-14T15:55:32.000Z,1.3
2023-09-14T15:56:47.000Z,1.5
2023-09-14T15:58:02.000Z,1.5
2023-09-14T15:59:18.000Z,1.3
2023-09-14T16:00:34.000Z,1.5
2023-09-14T16:01:50.000Z,1.5
2023-09-14T16:04:23.000Z,1.4
2023-09-14T16:05:39.000Z,1.5
2023-09-14T16:08:11.000Z,1.5
2023-09-14T16:09:27.000Z,1.6
2023-09-14T16:10:43.000Z,1.7
2023-09-14T16:11:59.000Z,1.7
2023-09-14T16:13:14.000Z,1.7
2023-09-14T16:14:30.000Z,1.3
2023-09-14T16:15:46.000Z,1.3
2023-09-14T16:17:02.000Z,1.4
2023-09-14T16:18:18.000Z,1.6
2023-09-14T16:19:35.000Z,1.6
2023-09-14T16:20:51.000Z,1.7
2023-09-14T16:22:07.000Z,1.6
2023-09-14T16:23:23.000Z,1.2
2023-09-14T16:27:10.000Z,1.6
2023-09-14T16:28:26.000Z,1.5
2023-09-14T16:29:41.000Z,1.5
2023-09-14T16:30:57.000Z,1.4
2023-09-14T16:32:13.000Z,1.2
2023-09-14T16:33:29.000Z,1.3
2023-09-14T16:34:45.000Z,1.5
2023-09-14T16:36:02.000Z,1.6
2023-09-14T16:37:18.000Z,1.2
2023-09-14T16:38:34.000Z,1.2
2023-09-14T16:39:49.000Z,1.3
2023-09-14T16:41:04.000Z,1.4
2023-09-14T16:42:19.000Z,1.2
2023-09-14T16:43:35.000Z,1.3
2023-09-14T16:44:52.000Z,1
2023-09-14T16:46:08.000Z,1.6
2023-09-14T16:47:24.000Z,1.3
2023-09-14T16:48:40.000Z,1.4
2023-09-14T16:49:56.000Z,1.3
2023-09-14T16:51:12.000Z,1.3
2023-09-14T16:52:28.000Z,1.4
2023-09-14T16:53:45.000Z,1.3
2023-09-14T16:55:00.000Z,1.2
2023-09-14T16:56:16.000Z,1.6
2023-09-14T16:57:32.000Z,1.2
2023-09-14T16:58:48.000Z,1.8
2023-09-14T17:00:05.000Z,1.6
2023-09-14T17:01:21.000Z,1.3
2023-09-14T17:02:37.000Z,1.3
2023-09-14T17:03:53.000Z,1
2023-09-14T17:06:25.000Z,1.3
2023-09-14T17:07:41.000Z,1.5
2023-09-14T17:08:58.000Z,1.3
2023-09-14T17:10:14.000Z,1.4
2023-09-14T17:11:29.000Z,1.4
2023-09-14T17:12:45.000Z,1.3
2023-09-14T17:14:01.000Z,1.5
2023-09-14T17:15:17.000Z,1.4
2023-09-14T17:16:33.000Z,1.2
2023-09-14T17:19:06.000Z,1.3
2023-09-14T17:20:22.000Z,1.4
2023-09-14T17:21:37.000Z,1.9
2023-09-14T17:22:52.000Z,1.7
2023-09-14T17:24:07.000Z,1.4
2023-09-14T17:25:24.000Z,1.4
2023-09-14T17:26:40.000Z,2
2023-09-14T17:27:56.000Z,1.6
2023-09-14T17:29:12.000Z,1.8
2023-09-14T17:30:28.000Z,1.4
2023-09-14T17:31:44.000Z,1.9
2023-09-14T17:33:00.000Z,1.5
2023-09-14T17:34:17.000Z,1.5
2023-09-14T17:35:32.000Z,1.6
2023-09-14T17:36:47.000Z,1.6
2023-09-14T17:38:03.000Z,1.7
2023-09-14T17:39:19.000Z,1.4
2023-09-14T17:40:35.000Z,1.8
2023-09-14T17:41:51.000Z,1.5
2023-09-14T17:43:08.000Z,1.9
2023-09-14T17:44:24.000Z,1.8
2023-09-14T17:45:40.000Z,2
2023-09-14T17:46:56.000Z,2
2023-09-14T17:48:12.000Z,1.7
2023-09-14T17:50:44.000Z,1.5
2023-09-14T17:52:01.000Z,1.6
2023-09-14T17:53:16.000Z,1.6
2023-09-14T17:54:32.000Z,1.6
2023-09-14T17:55:48.000Z,2.1
2023-09-14T17:58:20.000Z,1.8
2023-09-14T17:59:36.000Z,1.8
2023-09-14T18:00:51.000Z,2.6
2023-09-14T18:03:23.000Z,2
2023-09-14T18:04:39.000Z,2.1
2023-09-14T18:05:55.000Z,1.9
2023-09-14T18:07:11.000Z,2.2
2023-09-14T18:08:28.000Z,2
2023-09-14T18:09:44.000Z,1.9
2023-09-14T18:11:00.000Z,2.2
2023-09-14T18:12:16.000Z,1.8
2023-09-14T18:13:32.000Z,2.1
2023-09-14T18:14:48.000Z,1.9
2023-09-14T18:16:04.000Z,2.3
2023-09-14T18:17:20.000Z,2.4
2023-09-14T18:18:36.000Z,2.5
2023-09-14T18:19:52.000Z,2.2
2023-09-14T18:21:08.000Z,2.2
2023-09-14T18:22:24.000Z,2.5
2023-09-14T18:23:40.000Z,2
2023-09-14T18:24:56.000Z,2
2023-09-14T18:26:12.000Z,1.8
2023-09-14T18:27:27.000Z,2.3
2023-09-14T18:28:42.000Z,2.6
2023-09-14T18:29:58.000Z,2.1
2023-09-14T18:31:14.000Z,2.5
2023-09-14T18:32:30.000Z,2.4
2023-09-14T18:33:47.000Z,2.2
2023-09-14T18:35:03.000Z,2.2
2023-09-14T18:36:19.000Z,2
2023-09-14T18:37:35.000Z,2.1
2023-09-14T18:38:51.000Z,2.4
2023-09-14T18:40:07.000Z,2.1
2023-09-14T18:41:23.000Z,2.5
2023-09-14T18:42:40.000Z,2.2
2023-09-14T18:43:56.000Z,2.1
2023-09-14T18:45:11.000Z,2.5
2023-09-14T18:46:27.000Z,2
2023-09-14T18:47:43.000Z,2.8
2023-09-14T18:48:59.000Z,2.4
2023-09-14T18:51:32.000Z,2.2
2023-09-14T18:54:04.000Z,2.5
2023-09-14T18:55:19.000Z,2.2
2023-09-14T18:57:50.000Z,2.1
2023-09-14T19:01:39.000Z,2.2
2023-09-14T19:02:55.000Z,2.5
2023-09-14T19:04:11.000Z,2.5
2023-09-14T19:05:27.000Z,2.5
2023-09-14T19:06:43.000Z,2.5
2023-09-14T19:08:00.000Z,2.7
2023-09-14T19:09:16.000Z,2.4
2023-09-14T19:10:32.000Z,2.4
2023-09-14T19:11:47.000Z,2.6
2023-09-14T19:13:02.000Z,2.5
2023-09-14T19:15:34.000Z,2.3
2023-09-14T19:16:51.000Z,2.4
2023-09-14T19:18:07.000Z,2.6
2023-09-14T19:19:23.000Z,2.2
2023-09-14T19:20:39.000Z,2.4
2023-09-14T19:21:55.000Z,2.4
2023-09-14T19:23:11.000Z,2.3
2023-09-14T19:24:27.000Z,2.4
2023-09-14T19:25:44.000Z,2.1
2023-09-14T19:27:00.000Z,2.5
2023-09-14T19:28:16.000Z,2.5
2023-09-14T19:29:31.000Z,2.8
2023-09-14T19:30:47.000Z,3.1
2023-09-14T19:32:03.000Z,2.8